createdAt,value
2023-02-23T00:01:22.148Z,15.90
2023-02-23T00:03:23.944Z,15.20
2023-02-23T00:05:26.615Z,16.33
2023-02-23T00:07:28.362Z,16.70
2023-02-23T00:09:35.550Z,17.63
2023-02-23T00:11:38.403Z,17.30
2023-02-23T00:13:41.960Z,16.97
2023-02-23T00:15:43.690Z,17.67
2023-02-23T00:17:47.814Z,21.20
2023-02-23T00:19:49.634Z,18.70
2023-02-23T00:21:51.746Z,17.30
2023-02-23T00:23:59.139Z,20.17
2023-02-23T00:26:04.259Z,20.53
2023-02-23T00:28:07.280Z,18.97
2023-02-23T00:30:10.512Z,22.27
2023-02-23T00:32:12.344Z,20.13
2023-02-23T00:34:20.844Z,20.17
2023-02-23T00:36:26.074Z,22.40
2023-02-23T00:38:27.771Z,21.73
2023-02-23T00:40:30.052Z,22.27
2023-02-23T00:42:32.359Z,21.17
2023-02-23T00:44:40.426Z,20.50
2023-02-23T00:46:43.667Z,23.17
2023-02-23T00:48:46.068Z,20.37
2023-02-23T00:50:50.588Z,23.10
2023-02-23T00:52:52.321Z,22.07
2023-02-23T00:54:54.091Z,21.97
2023-02-23T00:56:55.846Z,23.50
2023-02-23T00:58:57.979Z,24.33
2023-02-23T01:01:01.485Z,21.63
2023-02-23T01:03:03.274Z,22.17
2023-02-23T01:05:05.496Z,24.23
2023-02-23T01:07:07.377Z,23.30
2023-02-23T01:09:13.583Z,23.60
2023-02-23T01:11:21.589Z,22.63
2023-02-23T01:13:24.266Z,21.90
2023-02-23T01:15:27.680Z,23.33
2023-02-23T01:17:30.600Z,20.83
2023-02-23T01:19:34.147Z,21.97
2023-02-23T01:21:42.231Z,22.57
2023-02-23T01:23:44.432Z,22.53
2023-02-23T01:25:46.766Z,20.17
2023-02-23T01:27:49.006Z,23.20
2023-02-23T01:29:50.936Z,20.43
2023-02-23T01:31:52.873Z,20.37
2023-02-23T01:33:59.355Z,20.97
2023-02-23T01:36:01.458Z,20.23
2023-02-23T01:38:03.851Z,19.03
2023-02-23T01:40:13.451Z,16.50
2023-02-23T01:42:15.467Z,18.17
2023-02-23T01:44:20.719Z,18.03
2023-02-23T01:46:22.492Z,17.40
2023-02-23T01:48:32.620Z,16.80
2023-02-23T01:50:41.730Z,16.40
2023-02-23T01:52:50.765Z,17.43
2023-02-23T01:54:55.675Z,18.03
2023-02-23T01:57:02.247Z,17.43
2023-02-23T01:59:08.296Z,18.23
2023-02-23T02:01:11.631Z,16.83
2023-02-23T02:03:22.734Z,19.70
2023-02-23T02:05:25.783Z,18.83
2023-02-23T02:07:32.946Z,19.70
2023-02-23T02:09:39.251Z,18.83
2023-02-23T02:11:44.501Z,19.07
2023-02-23T02:13:46.439Z,17.97
2023-02-23T02:16:13.090Z,20.80
2023-02-23T02:18:24.842Z,19.13
2023-02-23T02:20:45.580Z,18.80
2023-02-23T02:23:02.746Z,17.83
2023-02-23T02:25:29.527Z,17.23
2023-02-23T02:27:49.347Z,16.17
2023-02-23T02:30:13.914Z,16.53
2023-02-23T02:32:24.927Z,15.20
2023-02-23T02:34:55.735Z,14.60
2023-02-23T02:37:20.559Z,14.63
2023-02-23T02:39:44.828Z,16.07
2023-02-23T02:42:03.037Z,15.73
2023-02-23T02:44:16.486Z,15.23
2023-02-23T02:46:31.294Z,15.80
2023-02-23T02:48:57.840Z,17.37
2023-02-23T02:51:09.354Z,16.23
2023-02-23T02:53:13.476Z,18.23
2023-02-23T02:55:25.594Z,17.13
2023-02-23T02:57:29.856Z,17.37
2023-02-23T03:00:00.581Z,18.57
2023-02-23T03:02:22.793Z,24.57
2023-02-23T03:04:44.235Z,22.87
2023-02-23T03:07:14.262Z,34.27
2023-02-23T03:10:06.242Z,45.43
2023-02-23T03:13:08.873Z,32.37
2023-02-23T03:15:48.531Z,27.27
2023-02-23T03:18:29.779Z,19.40
2023-02-23T03:20:53.493Z,18.77
2023-02-23T03:23:32.809Z,17.53
2023-02-23T03:26:11.766Z,17.30
2023-02-23T03:28:40.115Z,16.97
2023-02-23T03:31:33.705Z,16.90
2023-02-23T03:34:18.532Z,17.50
2023-02-23T03:36:46.239Z,17.90
2023-02-23T03:39:23.539Z,16.53
2023-02-23T03:41:47.429Z,18.33
2023-02-23T03:44:13.757Z,15.93
2023-02-23T03:46:36.831Z,17.00
2023-02-23T03:49:01.227Z,15.70
2023-02-23T03:51:27.275Z,17.30
2023-02-23T03:53:59.301Z,17.23
2023-02-23T03:56:20.582Z,16.27
2023-02-23T03:58:50.159Z,17.97
2023-02-23T04:01:14.816Z,15.23
2023-02-23T04:03:37.942Z,16.07
2023-02-23T04:06:01.899Z,14.57
2023-02-23T04:08:26.795Z,13.20
2023-02-23T04:10:50.179Z,15.93
2023-02-23T04:13:14.401Z,13.20
2023-02-23T04:15:38.480Z,13.20
2023-02-23T04:17:40.954Z,12.50
2023-02-23T04:19:50.440Z,13.10
2023-02-23T04:21:52.349Z,12.83
2023-02-23T04:23:54.264Z,12.87
2023-02-23T04:25:56.192Z,12.10
2023-02-23T04:27:58.130Z,12.40
2023-02-23T04:29:59.981Z,13.03
2023-02-23T04:32:01.961Z,13.17
2023-02-23T04:34:04.848Z,12.53
2023-02-23T04:36:07.302Z,12.10
2023-02-23T04:38:09.131Z,12.20
2023-02-23T04:40:11.616Z,12.73
2023-02-23T04:42:13.916Z,12.57
2023-02-23T04:44:16.127Z,13.17
2023-02-23T04:46:18.044Z,13.17
2023-02-23T04:48:19.863Z,12.03
2023-02-23T04:50:21.825Z,11.83
2023-02-23T04:52:23.955Z,12.07
2023-02-23T04:54:26.103Z,12.40
2023-02-23T04:56:28.589Z,12.17
2023-02-23T04:58:30.428Z,11.93
2023-02-23T05:00:33.970Z,12.40
2023-02-23T05:02:36.041Z,13.30
2023-02-23T05:04:37.890Z,12.07
2023-02-23T05:06:39.686Z,13.10
2023-02-23T05:08:41.507Z,12.73
2023-02-23T05:10:43.439Z,13.50
2023-02-23T05:12:46.048Z,13.13
2023-02-23T05:14:47.949Z,13.43
2023-02-23T05:16:49.847Z,14.50
2023-02-23T05:18:53.187Z,14.33
2023-02-23T05:21:02.358Z,15.63
2023-02-23T05:23:04.444Z,15.63
2023-02-23T05:25:07.888Z,16.33
2023-02-23T05:27:11.308Z,17.37
2023-02-23T05:29:13.335Z,22.43
2023-02-23T05:31:15.410Z,17.53
2023-02-23T05:33:18.320Z,14.93
2023-02-23T05:35:20.122Z,14.83
2023-02-23T05:37:21.946Z,15.20
2023-02-23T05:39:23.810Z,15.73
2023-02-23T05:41:28.826Z,14.57
2023-02-23T05:43:30.534Z,15.67
2023-02-23T05:45:33.220Z,14.97
2023-02-23T05:47:38.948Z,14.07
2023-02-23T05:49:40.786Z,14.60
2023-02-23T05:51:43.084Z,15.33
2023-02-23T05:53:46.693Z,15.60
2023-02-23T05:55:48.530Z,15.27
2023-02-23T05:57:50.646Z,14.50
2023-02-23T05:59:52.550Z,15.23
2023-02-23T06:01:54.292Z,14.90
2023-02-23T06:03:56.226Z,14.77
2023-02-23T06:05:59.380Z,17.33
2023-02-23T06:08:01.715Z,17.73
2023-02-23T06:10:04.902Z,15.67
2023-02-23T06:12:06.983Z,15.53
2023-02-23T06:14:08.722Z,16.27
2023-02-23T06:16:10.639Z,16.20
2023-02-23T06:18:13.844Z,16.93
2023-02-23T06:20:17.147Z,17.20
2023-02-23T06:22:18.956Z,15.37
2023-02-23T06:24:21.527Z,17.97
2023-02-23T06:26:23.309Z,18.57
2023-02-23T06:28:25.698Z,16.27
2023-02-23T06:30:27.503Z,16.60
2023-02-23T06:32:29.569Z,17.90
2023-02-23T06:34:32.026Z,18.33
2023-02-23T06:36:34.775Z,15.50
2023-02-23T06:38:38.112Z,17.20
2023-02-23T06:40:40.490Z,15.73
2023-02-23T06:42:42.344Z,18.30
2023-02-23T06:44:44.534Z,17.83
2023-02-23T06:46:46.293Z,17.23
2023-02-23T06:48:48.294Z,18.60
2023-02-23T06:50:50.239Z,19.93
2023-02-23T06:52:52.263Z,18.50
2023-02-23T06:54:53.999Z,20.70
2023-02-23T06:56:56.735Z,19.77
2023-02-23T06:58:58.558Z,22.20
2023-02-23T07:01:00.566Z,21.87
2023-02-23T07:03:02.307Z,21.77
2023-02-23T07:05:05.015Z,22.83
2023-02-23T07:07:06.975Z,21.10
2023-02-23T07:09:08.751Z,22.67
2023-02-23T07:11:13.951Z,20.70
2023-02-23T07:13:16.374Z,23.10
2023-02-23T07:15:20.306Z,20.27
2023-02-23T07:17:22.367Z,21.90
2023-02-23T07:19:24.309Z,22.67
2023-02-23T07:21:27.121Z,23.13
2023-02-23T07:23:29.196Z,22.17
2023-02-23T07:25:31.292Z,21.07
2023-02-23T07:27:34.445Z,22.73
2023-02-23T07:29:36.212Z,19.97
2023-02-23T07:31:38.320Z,22.97
2023-02-23T07:33:40.330Z,20.17
2023-02-23T07:35:43.027Z,21.63
2023-02-23T07:37:44.914Z,19.67
2023-02-23T07:39:46.786Z,19.70
2023-02-23T07:41:48.463Z,19.63
2023-02-23T07:43:53.716Z,19.40
2023-02-23T07:45:58.838Z,20.70
2023-02-23T07:48:00.734Z,19.40
2023-02-23T07:50:03.430Z,20.43
2023-02-23T07:52:05.174Z,19.27
2023-02-23T07:54:07.092Z,18.97
2023-02-23T07:56:11.139Z,19.13
2023-02-23T07:58:14.178Z,19.37
2023-02-23T08:00:16.257Z,18.80
2023-02-23T08:02:18.024Z,21.10
2023-02-23T08:04:19.818Z,21.60
2023-02-23T08:06:21.738Z,21.40
2023-02-23T08:08:23.987Z,19.57
2023-02-23T08:10:26.362Z,19.77
2023-02-23T08:12:28.138Z,19.53
2023-02-23T08:14:29.927Z,22.67
2023-02-23T08:16:33.588Z,22.67
2023-02-23T08:18:35.621Z,20.03
2023-02-23T08:20:37.672Z,21.63
2023-02-23T08:22:48.997Z,20.63
2023-02-23T08:24:51.777Z,20.97
2023-02-23T08:26:53.711Z,20.30
2023-02-23T08:28:55.849Z,21.03
2023-02-23T08:30:59.405Z,19.90
2023-02-23T08:33:01.472Z,19.83
2023-02-23T08:35:03.342Z,24.30
2023-02-23T08:37:05.161Z,18.23
2023-02-23T08:39:07.604Z,21.73
2023-02-23T08:41:09.383Z,27.70
2023-02-23T08:43:11.323Z,23.37
2023-02-23T08:45:13.206Z,26.03
2023-02-23T08:47:16.924Z,21.60
2023-02-23T08:49:18.703Z,19.93
2023-02-23T08:51:20.977Z,21.80
2023-02-23T08:53:25.703Z,25.73
2023-02-23T08:55:27.557Z,22.23
2023-02-23T08:57:29.360Z,23.37
2023-02-23T08:59:31.140Z,20.73
2023-02-23T09:01:33.092Z,20.23
2023-02-23T09:03:38.202Z,22.60
2023-02-23T09:05:41.036Z,21.17
2023-02-23T09:07:46.507Z,19.57
2023-02-23T09:09:54.611Z,21.73
2023-02-23T09:11:57.552Z,22.07
2023-02-23T09:14:00.261Z,22.30
2023-02-23T09:16:03.997Z,26.43
2023-02-23T09:18:07.228Z,22.67
2023-02-23T09:20:13.531Z,27.27
2023-02-23T09:22:15.300Z,20.57
2023-02-23T09:24:18.505Z,25.97
2023-02-23T09:26:21.214Z,18.40
2023-02-23T09:28:23.351Z,21.00
2023-02-23T09:30:26.293Z,22.20
2023-02-23T09:32:28.137Z,23.43
2023-02-23T09:34:30.711Z,21.20
2023-02-23T09:36:32.495Z,22.50
2023-02-23T09:38:34.332Z,26.70
2023-02-23T09:40:53.290Z,23.90
2023-02-23T09:43:36.584Z,21.67
2023-02-23T09:45:42.389Z,23.07
2023-02-23T09:48:10.629Z,21.63
2023-02-23T09:50:23.402Z,20.90
2023-02-23T09:52:30.052Z,19.57
2023-02-23T09:54:34.717Z,24.13
2023-02-23T09:56:39.840Z,20.20
2023-02-23T09:58:41.777Z,23.17
2023-02-23T10:00:51.993Z,22.47
2023-02-23T10:03:11.694Z,22.30
2023-02-23T10:05:16.596Z,22.10
2023-02-23T10:07:46.053Z,22.43
2023-02-23T10:10:10.978Z,22.80
2023-02-23T10:12:26.392Z,22.13
2023-02-23T10:14:43.060Z,22.00
2023-02-23T10:16:47.151Z,23.90
2023-02-23T10:19:13.677Z,27.27
2023-02-23T10:21:36.491Z,25.87
2023-02-23T10:24:21.344Z,23.30
2023-02-23T10:26:28.942Z,24.60
2023-02-23T10:28:36.799Z,27.03
2023-02-23T10:30:41.240Z,25.40
2023-02-23T10:32:54.475Z,26.43
2023-02-23T10:34:56.716Z,25.23
2023-02-23T10:37:01.794Z,27.27
2023-02-23T10:39:08.519Z,24.77
2023-02-23T10:41:12.143Z,23.50
2023-02-23T10:43:15.685Z,23.27
2023-02-23T10:45:23.106Z,22.50
2023-02-23T10:47:28.724Z,22.70
2023-02-23T10:49:45.004Z,22.97
2023-02-23T10:51:46.905Z,29.23
2023-02-23T10:53:48.701Z,25.83
2023-02-23T10:56:07.708Z,23.33
2023-02-23T10:58:20.048Z,23.50
2023-02-23T11:00:32.803Z,20.67
2023-02-23T11:02:38.596Z,20.90
2023-02-23T11:04:52.876Z,23.27
2023-02-23T11:07:18.166Z,21.80
2023-02-23T11:09:33.097Z,21.70
2023-02-23T11:11:39.644Z,22.23
2023-02-23T11:13:50.111Z,22.20
2023-02-23T11:16:19.558Z,22.50
2023-02-23T11:18:24.712Z,22.90
2023-02-23T11:20:39.425Z,22.40
2023-02-23T11:22:42.127Z,21.23
2023-02-23T11:24:44.156Z,20.93
2023-02-23T11:26:48.508Z,22.03
2023-02-23T11:28:56.717Z,22.60
2023-02-23T11:31:14.425Z,21.30
2023-02-23T11:33:25.737Z,19.43
2023-02-23T11:35:30.616Z,19.57
2023-02-23T11:37:33.231Z,19.73
2023-02-23T11:39:35.290Z,20.07
2023-02-23T11:41:37.326Z,21.13
2023-02-23T11:43:48.944Z,19.33
2023-02-23T11:45:53.111Z,19.63
2023-02-23T11:47:59.385Z,20.30
2023-02-23T11:50:03.107Z,20.37
2023-02-23T11:52:15.692Z,20.90
2023-02-23T11:54:31.136Z,21.67
2023-02-23T11:56:35.388Z,18.27
2023-02-23T11:58:47.317Z,20.07
2023-02-23T12:01:00.760Z,19.90
2023-02-23T12:03:05.483Z,19.87
2023-02-23T12:05:10.066Z,18.60
2023-02-23T12:07:22.803Z,19.30
2023-02-23T12:09:29.315Z,19.57
2023-02-23T12:11:37.578Z,21.43
2023-02-23T12:13:45.993Z,20.07
2023-02-23T12:15:55.793Z,18.73
2023-02-23T12:18:04.693Z,19.40
2023-02-23T12:20:21.540Z,20.03
2023-02-23T12:22:33.709Z,19.97
2023-02-23T12:25:24.474Z,20.10
2023-02-23T12:27:45.122Z,18.90
2023-02-23T12:29:55.567Z,21.13
2023-02-23T12:32:07.970Z,18.87
2023-02-23T12:34:13.927Z,19.83
2023-02-23T12:36:15.631Z,18.97
2023-02-23T12:38:27.693Z,19.60
2023-02-23T12:40:34.816Z,20.13
2023-02-23T12:42:56.541Z,20.57
2023-02-23T12:45:06.504Z,21.37
2023-02-23T12:47:19.968Z,18.87
2023-02-23T12:49:41.432Z,20.83
2023-02-23T12:51:54.215Z,21.13
2023-02-23T12:53:55.972Z,20.33
2023-02-23T12:56:02.026Z,20.33
2023-02-23T12:58:13.875Z,18.90
2023-02-23T13:01:16.876Z,19.90
2023-02-23T13:03:35.419Z,20.00
2023-02-23T13:05:47.900Z,19.63
2023-02-23T13:08:12.701Z,18.83
2023-02-23T13:10:31.156Z,18.37
2023-02-23T13:12:44.587Z,21.83
2023-02-23T13:15:10.048Z,20.80
2023-02-23T13:17:44.871Z,21.57
2023-02-23T13:19:48.887Z,20.20
2023-02-23T13:22:12.355Z,19.87
2023-02-23T13:24:46.779Z,20.00
2023-02-23T13:27:10.412Z,19.43
2023-02-23T13:29:36.327Z,18.97
2023-02-23T13:31:40.674Z,19.60
2023-02-23T13:33:44.468Z,18.20
2023-02-23T13:35:46.700Z,17.40
2023-02-23T13:38:06.832Z,19.53
2023-02-23T13:40:27.254Z,19.13
2023-02-23T13:42:36.757Z,19.97
2023-02-23T13:44:49.213Z,18.93
2023-02-23T13:47:05.504Z,17.47
2023-02-23T13:49:39.212Z,18.27
2023-02-23T13:51:56.918Z,16.77
2023-02-23T13:54:04.564Z,16.97
2023-02-23T13:56:09.908Z,16.97
2023-02-23T13:58:16.767Z,15.90
2023-02-23T14:00:20.344Z,15.10
2023-02-23T14:02:37.603Z,15.20
2023-02-23T14:04:43.022Z,14.87
2023-02-23T14:06:56.379Z,16.70
2023-02-23T14:09:07.358Z,15.70
2023-02-23T14:11:10.476Z,15.53
2023-02-23T14:13:17.475Z,14.23
2023-02-23T14:15:25.255Z,14.60
2023-02-23T14:17:35.930Z,15.20
2023-02-23T14:19:50.248Z,15.57
2023-02-23T14:22:00.592Z,13.90
2023-02-23T14:24:12.849Z,13.70
2023-02-23T14:26:36.306Z,15.17
2023-02-23T14:28:40.329Z,14.93
2023-02-23T14:30:54.382Z,15.57
2023-02-23T14:33:13.076Z,14.03
2023-02-23T14:35:33.828Z,15.83
2023-02-23T14:37:38.895Z,14.73
2023-02-23T14:39:40.660Z,13.63
2023-02-23T14:42:07.526Z,14.73
2023-02-23T14:44:30.862Z,13.40
2023-02-23T14:46:35.610Z,13.10
2023-02-23T14:48:41.593Z,13.40
2023-02-23T14:50:43.867Z,14.57
2023-02-23T14:52:46.460Z,13.43
2023-02-23T14:54:48.533Z,12.70
2023-02-23T14:56:53.376Z,12.50
2023-02-23T14:58:56.375Z,12.33
2023-02-23T15:00:58.271Z,13.90
2023-02-23T15:03:09.313Z,13.93
2023-02-23T15:05:19.730Z,12.83
2023-02-23T15:07:39.850Z,13.40
2023-02-23T15:09:43.626Z,13.80
2023-02-23T15:11:50.238Z,15.00
2023-02-23T15:13:54.195Z,13.57
2023-02-23T15:15:58.849Z,14.77
2023-02-23T15:18:04.011Z,14.00
2023-02-23T15:20:16.360Z,13.97
2023-02-23T15:22:31.124Z,13.97
2023-02-23T15:24:43.065Z,12.90
2023-02-23T15:26:44.969Z,13.07
2023-02-23T15:28:47.065Z,13.00
2023-02-23T15:30:50.552Z,12.60
2023-02-23T15:33:11.323Z,14.30
2023-02-23T15:35:13.842Z,14.87
2023-02-23T15:37:37.430Z,12.83
2023-02-23T15:39:59.256Z,11.43
2023-02-23T15:42:02.142Z,12.43
2023-02-23T15:44:16.072Z,11.43
2023-02-23T15:46:29.109Z,10.47
2023-02-23T15:48:48.213Z,10.93
2023-02-23T15:50:57.610Z,10.20
2023-02-23T15:53:08.649Z,8.90
2023-02-23T15:55:15.349Z,8.43
2023-02-23T15:57:22.776Z,7.50
2023-02-23T15:59:35.375Z,8.57
2023-02-23T16:01:46.513Z,8.17
2023-02-23T16:04:07.194Z,5.67
2023-02-23T16:06:25.770Z,4.63
2023-02-23T16:08:27.625Z,4.67
2023-02-23T16:10:30.520Z,4.77
2023-02-23T16:12:38.106Z,4.13
2023-02-23T16:14:48.895Z,4.10
2023-02-23T16:17:10.014Z,4.87
2023-02-23T16:19:15.254Z,4.13
2023-02-23T16:21:21.563Z,4.83
2023-02-23T16:23:34.484Z,3.70
2023-02-23T16:25:36.400Z,5.43
2023-02-23T16:27:38.874Z,4.17
2023-02-23T16:29:41.939Z,4.10
2023-02-23T16:31:46.421Z,6.43
2023-02-23T16:33:56.790Z,4.30
2023-02-23T16:36:10.872Z,4.80
2023-02-23T16:38:28.162Z,4.67
2023-02-23T16:40:31.259Z,4.10
2023-02-23T16:42:34.881Z,5.10
2023-02-23T16:44:43.358Z,4.57
2023-02-23T16:47:09.985Z,4.23
2023-02-23T16:49:12.557Z,4.90
2023-02-23T16:51:25.288Z,5.03
2023-02-23T16:53:27.134Z,4.63
2023-02-23T16:55:29.655Z,5.13
2023-02-23T16:57:40.160Z,5.67
2023-02-23T16:59:42.207Z,5.80
2023-02-23T17:01:46.555Z,5.17
2023-02-23T17:03:53.241Z,6.30
2023-02-23T17:05:55.296Z,6.27
2023-02-23T17:07:58.931Z,5.53
2023-02-23T17:10:00.794Z,5.27
2023-02-23T17:12:02.594Z,7.00
2023-02-23T17:14:04.413Z,5.83
2023-02-23T17:16:10.770Z,6.10
2023-02-23T17:18:12.523Z,5.47
2023-02-23T17:20:21.326Z,5.80
2023-02-23T17:22:23.036Z,6.53
2023-02-23T17:24:26.095Z,6.27
2023-02-23T17:26:28.204Z,6.13
2023-02-23T17:28:29.952Z,6.23
2023-02-23T17:30:32.158Z,6.43
2023-02-23T17:32:36.008Z,7.70
2023-02-23T17:34:38.633Z,6.93
2023-02-23T17:36:40.353Z,7.17
2023-02-23T17:38:44.166Z,7.07
2023-02-23T17:40:45.942Z,6.87
2023-02-23T17:42:47.777Z,7.87
2023-02-23T17:44:49.615Z,8.10
2023-02-23T17:46:51.452Z,6.97
2023-02-23T17:48:55.285Z,7.80
2023-02-23T17:51:00.909Z,7.67
2023-02-23T17:53:02.851Z,7.40
2023-02-23T17:55:04.892Z,6.67
2023-02-23T17:57:06.669Z,7.33
2023-02-23T17:59:08.634Z,8.63
2023-02-23T18:01:10.529Z,8.13
2023-02-23T18:03:12.433Z,7.27
2023-02-23T18:05:16.464Z,7.60
2023-02-23T18:07:20.051Z,8.50
2023-02-23T18:09:21.775Z,6.60
2023-02-23T18:11:24.115Z,6.90
2023-02-23T18:13:27.836Z,7.20
2023-02-23T18:15:29.959Z,6.87
2023-02-23T18:17:33.670Z,6.50
2023-02-23T18:19:35.481Z,7.50
2023-02-23T18:21:40.819Z,6.53
2023-02-23T18:23:42.600Z,7.20
2023-02-23T18:25:44.857Z,8.80
2023-02-23T18:27:54.305Z,7.70
2023-02-23T18:29:56.101Z,8.17
2023-02-23T18:31:59.882Z,7.20
2023-02-23T18:34:02.248Z,7.30
2023-02-23T18:36:15.572Z,8.30
2023-02-23T18:38:17.629Z,18.37
2023-02-23T18:40:23.713Z,8.13
2023-02-23T18:42:25.947Z,6.93
2023-02-23T18:44:27.769Z,8.87
2023-02-23T18:46:31.306Z,7.50
2023-02-23T18:48:34.102Z,8.43
2023-02-23T18:50:36.944Z,8.73
2023-02-23T18:52:42.128Z,7.10
2023-02-23T18:54:43.885Z,8.57
2023-02-23T18:56:47.897Z,7.07
2023-02-23T18:58:59.999Z,7.93
2023-02-23T19:01:02.478Z,6.83
2023-02-23T19:03:04.276Z,7.53
2023-02-23T19:05:06.673Z,7.20
2023-02-23T19:07:08.592Z,6.80
2023-02-23T19:09:13.305Z,6.00
2023-02-23T19:11:15.066Z,6.40
2023-02-23T19:13:21.879Z,5.90
2023-02-23T19:15:23.851Z,6.73
2023-02-23T19:17:27.471Z,5.30
2023-02-23T19:19:29.141Z,6.10
2023-02-23T19:21:31.663Z,5.73
2023-02-23T19:23:33.370Z,5.73
2023-02-23T19:25:35.057Z,7.07
2023-02-23T19:27:37.256Z,5.63
2023-02-23T19:29:38.992Z,5.43
2023-02-23T19:31:40.857Z,5.57
2023-02-23T19:33:43.339Z,6.10
2023-02-23T19:35:45.072Z,5.53
2023-02-23T19:37:52.000Z,5.90
2023-02-23T19:39:53.928Z,8.23
2023-02-23T19:41:55.964Z,6.50
2023-02-23T19:43:59.203Z,6.20
2023-02-23T19:46:09.303Z,6.77
2023-02-23T19:48:11.160Z,7.00
2023-02-23T19:50:16.775Z,6.27
2023-02-23T19:52:18.539Z,6.27
2023-02-23T19:54:21.078Z,7.37
2023-02-23T19:56:25.168Z,7.63
2023-02-23T19:58:27.505Z,7.10
2023-02-23T20:00:29.676Z,8.03
2023-02-23T20:02:31.466Z,7.90
2023-02-23T20:04:33.540Z,8.03
2023-02-23T20:06:44.439Z,8.17
2023-02-23T20:08:47.082Z,10.17
2023-02-23T20:10:49.212Z,12.63
2023-02-23T20:12:52.277Z,12.70
2023-02-23T20:14:55.680Z,13.37
2023-02-23T20:16:57.640Z,13.13
2023-02-23T20:19:00.227Z,13.40
2023-02-23T20:21:16.564Z,14.87
2023-02-23T20:23:21.696Z,16.57
2023-02-23T20:25:24.758Z,15.43
2023-02-23T20:27:36.079Z,17.13
2023-02-23T20:29:39.355Z,16.63
2023-02-23T20:32:01.275Z,18.97
2023-02-23T20:34:11.341Z,20.23
2023-02-23T20:36:14.476Z,21.87
2023-02-23T20:38:17.699Z,20.20
2023-02-23T20:40:22.858Z,20.50
2023-02-23T20:42:28.159Z,20.17
2023-02-23T20:44:31.273Z,22.90
2023-02-23T20:46:33.025Z,23.47
2023-02-23T20:48:35.596Z,20.50
2023-02-23T20:50:38.353Z,21.13
2023-02-23T20:52:41.693Z,22.03
2023-02-23T20:54:44.667Z,22.33
2023-02-23T20:56:47.047Z,21.90
2023-02-23T20:58:48.944Z,22.40
2023-02-23T21:01:02.461Z,21.33
2023-02-23T21:03:05.031Z,22.50
2023-02-23T21:05:12.173Z,21.27
2023-02-23T21:07:15.223Z,22.63
2023-02-23T21:09:17.174Z,21.13
2023-02-23T21:11:20.035Z,22.30
2023-02-23T21:13:23.116Z,22.47
2023-02-23T21:15:25.623Z,22.30
2023-02-23T21:17:27.966Z,24.23
2023-02-23T21:19:33.195Z,23.07
2023-02-23T21:21:42.732Z,24.53
2023-02-23T21:23:44.743Z,22.23
2023-02-23T21:25:47.193Z,22.23
2023-02-23T21:27:49.559Z,25.00
2023-02-23T21:29:55.313Z,26.80
2023-02-23T21:31:59.683Z,25.73
2023-02-23T21:34:05.600Z,25.80
2023-02-23T21:36:10.518Z,22.00
2023-02-23T21:38:12.539Z,24.90
2023-02-23T21:40:19.373Z,25.50
2023-02-23T21:42:23.661Z,24.07
2023-02-23T21:44:27.504Z,26.10
2023-02-23T21:46:29.369Z,25.37
2023-02-23T21:48:31.480Z,23.33
2023-02-23T21:50:33.163Z,23.17
2023-02-23T21:52:35.504Z,23.60
2023-02-23T21:54:37.526Z,21.40
2023-02-23T21:56:39.423Z,28.87
2023-02-23T21:58:46.590Z,21.83
2023-02-23T22:00:49.074Z,25.73
2023-02-23T22:02:51.928Z,26.30
2023-02-23T22:04:53.847Z,25.70
2023-02-23T22:06:55.931Z,23.27
2023-02-23T22:08:58.576Z,22.57
2023-02-23T22:11:06.390Z,24.80
2023-02-23T22:13:08.250Z,23.93
2023-02-23T22:15:10.390Z,25.87
2023-02-23T22:17:12.911Z,24.03
2023-02-23T22:19:15.484Z,25.27
2023-02-23T22:21:19.388Z,24.90
2023-02-23T22:23:21.508Z,26.00
2023-02-23T22:25:23.434Z,25.33
2023-02-23T22:27:25.473Z,25.00
2023-02-23T22:29:27.567Z,25.13
2023-02-23T22:31:30.795Z,25.77
2023-02-23T22:33:33.302Z,27.20
2023-02-23T22:35:38.893Z,25.27
2023-02-23T22:37:41.339Z,26.67
2023-02-23T22:39:43.296Z,27.87
2023-02-23T22:41:46.623Z,25.07
2023-02-23T22:43:48.421Z,26.23
2023-02-23T22:45:57.981Z,28.93
2023-02-23T22:48:01.732Z,28.60
2023-02-23T22:50:06.469Z,28.93
2023-02-23T22:52:08.314Z,24.80
2023-02-23T22:54:11.405Z,28.10
2023-02-23T22:56:13.871Z,26.07
2023-02-23T22:58:16.806Z,25.80
2023-02-23T23:00:19.282Z,27.13
2023-02-23T23:02:22.697Z,26.00
2023-02-23T23:04:25.779Z,26.53
2023-02-23T23:06:27.883Z,25.50
2023-02-23T23:08:36.429Z,25.87
2023-02-23T23:10:38.488Z,25.70
2023-02-23T23:12:40.675Z,23.60
2023-02-23T23:14:42.412Z,23.13
2023-02-23T23:16:48.866Z,24.87
2023-02-23T23:18:55.174Z,22.83
2023-02-23T23:21:02.373Z,23.37
2023-02-23T23:23:06.999Z,21.37
2023-02-23T23:25:15.020Z,21.60
2023-02-23T23:27:19.791Z,19.97
2023-02-23T23:29:23.547Z,22.53
2023-02-23T23:31:29.134Z,22.40
2023-02-23T23:33:31.175Z,23.00
2023-02-23T23:35:34.307Z,20.40
2023-02-23T23:37:39.642Z,22.47
2023-02-23T23:39:41.512Z,23.27
2023-02-23T23:41:44.804Z,21.73
2023-02-23T23:43:48.039Z,20.93
2023-02-23T23:45:51.845Z,19.87
2023-02-23T23:47:53.669Z,19.63
2023-02-23T23:49:55.808Z,17.67
2023-02-23T23:51:57.779Z,18.80
2023-02-23T23:54:02.078Z,19.27
2023-02-23T23:56:06.273Z,20.60
2023-02-23T23:58:08.329Z,19.50
